sensor_id;sensor_type;location;lat;lon;timestamp;pressure;altitude;pressure_sealevel;temperature;humidity
73240;BME280;61452;40.054;4.110;2023-07-30T00:02:04;101620.53;;;27.98;100.00
73240;BME280;61452;40.054;4.110;2023-07-30T00:07:06;101624.94;;;27.99;100.00
73240;BME280;61452;40.054;4.110;2023-07-30T00:12:09;101632.00;;;27.92;100.00
73240;BME280;61452;40.054;4.110;2023-07-30T00:17:12;101615.97;;;27.90;100.00
73240;BME280;61452;40.054;4.110;2023-07-30T00:22:14;101615.81;;;27.92;100.00
73240;BME280;61452;40.054;4.110;2023-07-30T00:27:16;101617.50;;;27.93;100.00
73240;BME280;61452;40.054;4.110;2023-07-30T00:32:18;101607.72;;;27.92;100.00
73240;BME280;61452;40.054;4.110;2023-07-30T00:37:21;101611.44;;;27.91;100.00
73240;BME280;61452;40.054;4.110;2023-07-30T00:42:24;101602.34;;;27.92;100.00
73240;BME280;61452;40.054;4.110;2023-07-30T00:47:26;101607.06;;;27.90;100.00
73240;BME280;61452;40.054;4.110;2023-07-30T00:52:29;101621.72;;;27.87;100.00
73240;BME280;61452;40.054;4.110;2023-07-30T00:57:32;101609.41;;;27.85;100.00
73240;BME280;61452;40.054;4.110;2023-07-30T01:02:36;101614.78;;;27.85;100.00
73240;BME280;61452;40.054;4.110;2023-07-30T01:07:38;101611.75;;;27.80;100.00
73240;BME280;61452;40.054;4.110;2023-07-30T01:12:42;101614.13;;;27.83;100.00
73240;BME280;61452;40.054;4.110;2023-07-30T01:17:44;101612.09;;;27.85;100.00
73240;BME280;61452;40.054;4.110;2023-07-30T01:22:47;101617.50;;;27.85;100.00
73240;BME280;61452;40.054;4.110;2023-07-30T01:27:52;101623.06;;;27.83;100.00
73240;BME280;61452;40.054;4.110;2023-07-30T01:32:56;101607.06;;;27.82;100.00
73240;BME280;61452;40.054;4.110;2023-07-30T01:38:01;101622.38;;;27.81;100.00
73240;BME280;61452;40.054;4.110;2023-07-30T01:43:07;101625.25;;;27.80;100.00
73240;BME280;61452;40.054;4.110;2023-07-30T01:48:09;101635.19;;;27.79;100.00
73240;BME280;61452;40.054;4.110;2023-07-30T01:53:11;101626.25;;;27.78;100.00
73240;BME280;61452;40.054;4.110;2023-07-30T01:58:14;101634.34;;;27.78;100.00
73240;BME280;61452;40.054;4.110;2023-07-30T02:03:16;101619.16;;;27.77;100.00
73240;BME280;61452;40.054;4.110;2023-07-30T02:08:18;101620.00;;;27.78;100.00
73240;BME280;61452;40.054;4.110;2023-07-30T02:13:20;101615.66;;;27.77;100.00
73240;BME280;61452;40.054;4.110;2023-07-30T02:18:22;101620.84;;;27.78;100.00
73240;BME280;61452;40.054;4.110;2023-07-30T02:23:24;101626.44;;;27.77;100.00
73240;BME280;61452;40.054;4.110;2023-07-30T02:28:27;101620.19;;;27.76;100.00
73240;BME280;61452;40.054;4.110;2023-07-30T02:33:29;101624.41;;;27.79;100.00
73240;BME280;61452;40.054;4.110;2023-07-30T02:38:31;101631.63;;;27.78;100.00
73240;BME280;61452;40.054;4.110;2023-07-30T02:43:33;101644.47;;;27.76;100.00
73240;BME280;61452;40.054;4.110;2023-07-30T02:48:36;101643.44;;;27.77;100.00
73240;BME280;61452;40.054;4.110;2023-07-30T02:53:38;101641.22;;;27.73;100.00
73240;BME280;61452;40.054;4.110;2023-07-30T02:58:40;101635.69;;;27.74;100.00
73240;BME280;61452;40.054;4.110;2023-07-30T03:03:42;101625.91;;;27.73;100.00
73240;BME280;61452;40.054;4.110;2023-07-30T03:08:44;101622.19;;;27.74;100.00
73240;BME280;61452;40.054;4.110;2023-07-30T03:13:47;101624.06;;;27.74;100.00
73240;BME280;61452;40.054;4.110;2023-07-30T03:18:49;101615.97;;;27.74;100.00
73240;BME280;61452;40.054;4.110;2023-07-30T03:23:51;101601.97;;;27.78;100.00
73240;BME280;61452;40.054;4.110;2023-07-30T03:28:53;101617.00;;;27.81;100.00
73240;BME280;61452;40.054;4.110;2023-07-30T03:33:55;101614.13;;;27.83;100.00
73240;BME280;61452;40.054;4.110;2023-07-30T03:38:57;101612.94;;;27.85;100.00
73240;BME280;61452;40.054;4.110;2023-07-30T03:44:00;101609.41;;;27.85;100.00
73240;BME280;61452;40.054;4.110;2023-07-30T03:49:02;101607.69;;;27.84;100.00
73240;BME280;61452;40.054;4.110;2023-07-30T03:54:05;101614.13;;;27.83;100.00
73240;BME280;61452;40.054;4.110;2023-07-30T03:59:07;101624.06;;;27.82;100.00
73240;BME280;61452;40.054;4.110;2023-07-30T04:04:09;101634.19;;;27.80;100.00
73240;BME280;61452;40.054;4.110;2023-07-30T04:09:11;101642.41;;;27.78;100.00
73240;BME280;61452;40.054;4.110;2023-07-30T04:14:13;101652.34;;;27.78;100.00
73240;BME280;61452;40.054;4.110;2023-07-30T04:19:16;101658.78;;;27.77;100.00
73240;BME280;61452;40.054;4.110;2023-07-30T04:24:21;101674.28;;;27.75;100.00
73240;BME280;61452;40.054;4.110;2023-07-30T04:29:23;101677.13;;;27.73;100.00
73240;BME280;61452;40.054;4.110;2023-07-30T04:34:26;101671.03;;;27.71;100.00
73240;BME280;61452;40.054;4.110;2023-07-30T04:39:30;101681.69;;;27.73;100.00
73240;BME280;61452;40.054;4.110;2023-07-30T04:44:34;101683.72;;;27.71;100.00
73240;BME280;61452;40.054;4.110;2023-07-30T04:49:45;101679.13;;;27.71;100.00
73240;BME280;61452;40.054;4.110;2023-07-30T04:54:47;101688.06;;;27.72;100.00
73240;BME280;61452;40.054;4.110;2023-07-30T04:59:49;101684.19;;;27.66;100.00
73240;BME280;61452;40.054;4.110;2023-07-30T05:04:51;101684.19;;;27.66;100.00
73240;BME280;61452;40.054;4.110;2023-07-30T05:09:53;101678.97;;;27.65;100.00
73240;BME280;61452;40.054;4.110;2023-07-30T05:14:56;101689.06;;;27.63;100.00
73240;BME280;61452;40.054;4.110;2023-07-30T05:19:58;101690.56;;;27.65;100.00
73240;BME280;61452;40.054;4.110;2023-07-30T05:25:00;101690.41;;;27.67;100.00
73240;BME280;61452;40.054;4.110;2023-07-30T05:30:02;101690.91;;;27.62;100.00
73240;BME280;61452;40.054;4.110;2023-07-30T05:35:05;101696.31;;;27.62;100.00
73240;BME280;61452;40.054;4.110;2023-07-30T05:40:07;101688.38;;;27.61;100.00
73240;BME280;61452;40.054;4.110;2023-07-30T05:45:10;101696.63;;;27.59;100.00
73240;BME280;61452;40.054;4.110;2023-07-30T05:50:13;101695.81;;;27.59;100.00
73240;BME280;61452;40.054;4.110;2023-07-30T05:55:15;101709.28;;;27.59;100.00
73240;BME280;61452;40.054;4.110;2023-07-30T06:00:17;101716.16;;;27.53;100.00
73240;BME280;61452;40.054;4.110;2023-07-30T06:05:20;101721.72;;;27.60;100.00
73240;BME280;61452;40.054;4.110;2023-07-30T06:10:22;101719.72;;;27.62;100.00
73240;BME280;61452;40.054;4.110;2023-07-30T06:15:24;101724.44;;;27.60;100.00
73240;BME280;61452;40.054;4.110;2023-07-30T06:20:26;101732.50;;;27.60;100.00
73240;BME280;61452;40.054;4.110;2023-07-30T06:25:29;101739.44;;;27.62;100.00
73240;BME280;61452;40.054;4.110;2023-07-30T06:30:32;101747.38;;;27.64;100.00
73240;BME280;61452;40.054;4.110;2023-07-30T06:35:34;101745.69;;;27.63;100.00
73240;BME280;61452;40.054;4.110;2023-07-30T06:40:37;101737.44;;;27.64;100.00
73240;BME280;61452;40.054;4.110;2023-07-30T06:45:39;101744.88;;;27.70;100.00
73240;BME280;61452;40.054;4.110;2023-07-30T06:50:41;101750.94;;;27.72;100.00
73240;BME280;61452;40.054;4.110;2023-07-30T06:55:43;101756.03;;;27.75;100.00
73240;BME280;61452;40.054;4.110;2023-07-30T07:00:46;101750.47;;;27.77;100.00
73240;BME280;61452;40.054;4.110;2023-07-30T07:05:55;101761.91;;;27.79;100.00
73240;BME280;61452;40.054;4.110;2023-07-30T07:10:57;101765.47;;;27.80;100.00
73240;BME280;61452;40.054;4.110;2023-07-30T07:15:59;101771.69;;;27.80;100.00
73240;BME280;61452;40.054;4.110;2023-07-30T07:21:02;101778.09;;;27.79;100.00
73240;BME280;61452;40.054;4.110;2023-07-30T07:26:04;101778.09;;;27.79;100.00
73240;BME280;61452;40.054;4.110;2023-07-30T07:31:06;101780.94;;;27.77;100.00
73240;BME280;61452;40.054;4.110;2023-07-30T07:36:09;101775.75;;;27.76;100.00
73240;BME280;61452;40.054;4.110;2023-07-30T07:41:15;101781.97;;;27.76;100.00
73240;BME280;61452;40.054;4.110;2023-07-30T07:46:21;101790.91;;;27.77;100.00
73240;BME280;61452;40.054;4.110;2023-07-30T07:51:23;101801.22;;;27.82;100.00
73240;BME280;61452;40.054;4.110;2023-07-30T07:56:25;101807.59;;;27.81;100.00
73240;BME280;61452;40.054;4.110;2023-07-30T08:01:27;101808.44;;;27.81;100.00
73240;BME280;61452;40.054;4.110;2023-07-30T08:06:31;101811.16;;;27.81;100.00
73240;BME280;61452;40.054;4.110;2023-07-30T08:11:34;101815.19;;;27.85;100.00
73240;BME280;61452;40.054;4.110;2023-07-30T08:16:36;101816.06;;;27.86;100.00
73240;BME280;61452;40.054;4.110;2023-07-30T08:21:38;101812.84;;;27.82;100.00
73240;BME280;61452;40.054;4.110;2023-07-30T08:26:41;101819.09;;;27.83;100.00
73240;BME280;61452;40.054;4.110;2023-07-30T08:31:43;101820.59;;;27.85;100.00
73240;BME280;61452;40.054;4.110;2023-07-30T08:36:46;101830.38;;;27.86;100.00
73240;BME280;61452;40.054;4.110;2023-07-30T08:41:48;101832.06;;;27.87;100.00
73240;BME280;61452;40.054;4.110;2023-07-30T08:46:50;101844.41;;;27.90;100.00
73240;BME280;61452;40.054;4.110;2023-07-30T08:51:56;101835.56;;;27.80;100.00
73240;BME280;61452;40.054;4.110;2023-07-30T08:56:59;101838.13;;;27.81;100.00
73240;BME280;61452;40.054;4.110;2023-07-30T09:02:02;101842.16;;;27.77;100.00
73240;BME280;61452;40.054;4.110;2023-07-30T09:07:08;101842.66;;;27.81;100.00
73240;BME280;61452;40.054;4.110;2023-07-30T09:12:15;101846.91;;;27.83;100.00
73240;BME280;61452;40.054;4.110;2023-07-30T09:17:18;101842.31;;;27.84;100.00
73240;BME280;61452;40.054;4.110;2023-07-30T09:22:27;101857.50;;;27.85;100.00
73240;BME280;61452;40.054;4.110;2023-07-30T09:27:29;101855.50;;;27.87;100.00
73240;BME280;61452;40.054;4.110;2023-07-30T09:32:34;101850.63;;;27.90;100.00
73240;BME280;61452;40.054;4.110;2023-07-30T09:37:39;101849.81;;;27.90;100.00
73240;BME280;61452;40.054;4.110;2023-07-30T09:42:43;101855.34;;;27.88;100.00
73240;BME280;61452;40.054;4.110;2023-07-30T09:47:49;101857.41;;;27.94;100.00
73240;BME280;61452;40.054;4.110;2023-07-30T09:52:52;101861.09;;;27.93;100.00
73240;BME280;61452;40.054;4.110;2023-07-30T09:57:56;101863.31;;;27.98;100.00
73240;BME280;61452;40.054;4.110;2023-07-30T10:03:01;101872.94;;;28.00;100.00
73240;BME280;61452;40.054;4.110;2023-07-30T10:08:37;101880.69;;;28.03;100.00
73240;BME280;61452;40.054;4.110;2023-07-30T10:13:41;101873.78;;;28.01;100.00
73240;BME280;61452;40.054;4.110;2023-07-30T10:18:44;101871.94;;;28.01;100.00
73240;BME280;61452;40.054;4.110;2023-07-30T10:23:57;101881.38;;;28.05;100.00
73240;BME280;61452;40.054;4.110;2023-07-30T10:34:15;101876.69;;;28.07;100.00
73240;BME280;61452;40.054;4.110;2023-07-30T10:39:25;101867.56;;;28.08;100.00
73240;BME280;61452;40.054;4.110;2023-07-30T10:44:31;101861.16;;;28.09;100.00
73240;BME280;61452;40.054;4.110;2023-07-30T10:49:40;101864.84;;;28.08;100.00
73240;BME280;61452;40.054;4.110;2023-07-30T10:54:43;101866.25;;;28.12;100.00
73240;BME280;61452;40.054;4.110;2023-07-30T10:59:46;101856.69;;;28.18;100.00
73240;BME280;61452;40.054;4.110;2023-07-30T11:04:48;101856.53;;;28.20;100.00
73240;BME280;61452;40.054;4.110;2023-07-30T11:10:00;101861.94;;;28.20;100.00
73240;BME280;61452;40.054;4.110;2023-07-30T11:15:05;101860.44;;;28.25;100.00
73240;BME280;61452;40.054;4.110;2023-07-30T11:20:12;101860.09;;;28.28;100.00
73240;BME280;61452;40.054;4.110;2023-07-30T11:25:23;101863.97;;;28.34;100.00
73240;BME280;61452;40.054;4.110;2023-07-30T11:30:26;101860.28;;;28.35;100.00
73240;BME280;61452;40.054;4.110;2023-07-30T11:35:30;101873.28;;;28.39;100.00
73240;BME280;61452;40.054;4.110;2023-07-30T11:40:33;101880.72;;;28.37;100.00
73240;BME280;61452;40.054;4.110;2023-07-30T11:45:35;101872.06;;;28.34;100.00
73240;BME280;61452;40.054;4.110;2023-07-30T11:50:48;101865.84;;;28.33;100.00
73240;BME280;61452;40.054;4.110;2023-07-30T11:55:50;101865.31;;;28.30;100.00
73240;BME280;61452;40.054;4.110;2023-07-30T12:00:53;101861.47;;;28.32;100.00
73240;BME280;61452;40.054;4.110;2023-07-30T12:05:55;101848.13;;;28.31;100.00
73240;BME280;61452;40.054;4.110;2023-07-30T12:11:05;101846.44;;;28.30;100.00
73240;BME280;61452;40.054;4.110;2023-07-30T12:16:08;101843.91;;;28.28;100.00
73240;BME280;61452;40.054;4.110;2023-07-30T12:21:10;101850.97;;;28.29;100.00
73240;BME280;61452;40.054;4.110;2023-07-30T12:26:14;101842.38;;;28.26;100.00
73240;BME280;61452;40.054;4.110;2023-07-30T12:31:16;101847.78;;;28.26;100.00
73240;BME280;61452;40.054;4.110;2023-07-30T12:36:18;101851.47;;;28.25;100.00
73240;BME280;61452;40.054;4.110;2023-07-30T12:41:21;101850.47;;;28.26;100.00
73240;BME280;61452;40.054;4.110;2023-07-30T12:46:27;101851.47;;;28.25;100.00
73240;BME280;61452;40.054;4.110;2023-07-30T12:51:32;101852.34;;;28.25;100.00
73240;BME280;61452;40.054;4.110;2023-07-30T12:56:35;101845.25;;;28.24;100.00
73240;BME280;61452;40.054;4.110;2023-07-30T13:01:38;101849.63;;;28.25;100.00
73240;BME280;61452;40.054;4.110;2023-07-30T13:06:42;101848.78;;;28.25;100.00
73240;BME280;61452;40.054;4.110;2023-07-30T13:11:44;101853.34;;;28.24;100.00
73240;BME280;61452;40.054;4.110;2023-07-30T13:16:46;101854.34;;;28.23;100.00
73240;BME280;61452;40.054;4.110;2023-07-30T13:21:49;101853.50;;;28.23;100.00
73240;BME280;61452;40.054;4.110;2023-07-30T13:26:51;101853.50;;;28.23;100.00
73240;BME280;61452;40.054;4.110;2023-07-30T13:31:53;101851.28;;;28.18;100.00
73240;BME280;61452;40.054;4.110;2023-07-30T13:36:55;101851.28;;;28.18;100.00
73240;BME280;61452;40.054;4.110;2023-07-30T13:41:57;101851.13;;;28.20;100.00
73240;BME280;61452;40.054;4.110;2023-07-30T13:46:59;101848.25;;;28.21;100.00
73240;BME280;61452;40.054;4.110;2023-07-30T13:52:02;101859.03;;;28.21;100.00
73240;BME280;61452;40.054;4.110;2023-07-30T13:57:04;101849.59;;;28.17;100.00
73240;BME280;61452;40.054;4.110;2023-07-30T14:02:07;101861.09;;;28.19;100.00
73240;BME280;61452;40.054;4.110;2023-07-30T14:07:09;101857.69;;;28.17;100.00
73240;BME280;61452;40.054;4.110;2023-07-30T14:12:11;101861.09;;;28.19;100.00
73240;BME280;61452;40.054;4.110;2023-07-30T14:17:14;101858.53;;;28.17;100.00
73240;BME280;61452;40.054;4.110;2023-07-30T14:22:17;101855.00;;;28.17;100.00
73240;BME280;61452;40.054;4.110;2023-07-30T14:27:19;101846.91;;;28.17;100.00
73240;BME280;61452;40.054;4.110;2023-07-30T14:32:23;101850.59;;;28.16;100.00
73240;BME280;61452;40.054;4.110;2023-07-30T14:37:25;101845.34;;;28.14;100.00
73240;BME280;61452;40.054;4.110;2023-07-30T14:42:27;101849.09;;;28.13;100.00
73240;BME280;61452;40.054;4.110;2023-07-30T14:47:29;101843.50;;;28.15;100.00
73240;BME280;61452;40.054;4.110;2023-07-30T14:52:31;101841.00;;;28.13;100.00
73240;BME280;61452;40.054;4.110;2023-07-30T14:57:34;101841.66;;;28.15;100.00
73240;BME280;61452;40.054;4.110;2023-07-30T15:02:36;101830.00;;;28.15;100.00
73240;BME280;61452;40.054;4.110;2023-07-30T15:07:38;101830.72;;;28.17;100.00
73240;BME280;61452;40.054;4.110;2023-07-30T15:12:40;101825.16;;;28.19;100.00
73240;BME280;61452;40.054;4.110;2023-07-30T15:17:42;101816.91;;;28.20;100.00
73240;BME280;61452;40.054;4.110;2023-07-30T15:22:45;101819.41;;;28.22;100.00
73240;BME280;61452;40.054;4.110;2023-07-30T15:27:47;101819.41;;;28.22;100.00
73240;BME280;61452;40.054;4.110;2023-07-30T15:32:49;101821.25;;;28.21;100.00
73240;BME280;61452;40.054;4.110;2023-07-30T15:37:51;101817.41;;;28.24;100.00
73240;BME280;61452;40.054;4.110;2023-07-30T15:42:54;101814.56;;;28.25;100.00
73240;BME280;61452;40.054;4.110;2023-07-30T15:47:56;101814.56;;;28.25;100.00
73240;BME280;61452;40.054;4.110;2023-07-30T15:53:00;101811.16;;;28.23;100.00
73240;BME280;61452;40.054;4.110;2023-07-30T15:58:02;101806.31;;;28.27;100.00
73240;BME280;61452;40.054;4.110;2023-07-30T16:03:04;101811.50;;;28.28;100.00
73240;BME280;61452;40.054;4.110;2023-07-30T16:08:09;101805.94;;;28.30;100.00
73240;BME280;61452;40.054;4.110;2023-07-30T16:13:11;101818.44;;;28.31;100.00
73240;BME280;61452;40.054;4.110;2023-07-30T16:18:13;101812.19;;;28.30;100.00
73240;BME280;61452;40.054;4.110;2023-07-30T16:23:15;101810.34;;;28.31;100.00
73240;BME280;61452;40.054;4.110;2023-07-30T16:28:17;101800.41;;;28.31;100.00
73240;BME280;61452;40.054;4.110;2023-07-30T16:33:20;101800.06;;;28.34;100.00
73240;BME280;61452;40.054;4.110;2023-07-30T16:38:23;101790.78;;;28.37;100.00
73240;BME280;61452;40.054;4.110;2023-07-30T16:43:25;101790.44;;;28.40;100.00
73240;BME280;61452;40.054;4.110;2023-07-30T16:48:27;101786.44;;;28.44;100.00
73240;BME280;61452;40.054;4.110;2023-07-30T16:53:30;101782.53;;;28.46;100.00
73240;BME280;61452;40.054;4.110;2023-07-30T16:58:32;101775.44;;;28.53;100.00
73240;BME280;61452;40.054;4.110;2023-07-30T17:03:36;101766.84;;;28.58;100.00
73240;BME280;61452;40.054;4.110;2023-07-30T17:08:39;101768.22;;;28.62;100.00
73240;BME280;61452;40.054;4.110;2023-07-30T17:13:41;101769.72;;;28.65;100.00
73240;BME280;61452;40.054;4.110;2023-07-30T17:18:46;101769.56;;;28.66;100.00
73240;BME280;61452;40.054;4.110;2023-07-30T17:23:48;101775.66;;;28.68;100.00
73240;BME280;61452;40.054;4.110;2023-07-30T17:28:50;101771.09;;;28.69;100.00
73240;BME280;61452;40.054;4.110;2023-07-30T17:33:53;101779.00;;;28.70;100.00
73240;BME280;61452;40.054;4.110;2023-07-30T17:38:58;101776.13;;;28.72;100.00
73240;BME280;61452;40.054;4.110;2023-07-30T17:44:00;101781.38;;;28.73;100.00
73240;BME280;61452;40.054;4.110;2023-07-30T17:49:04;101776.13;;;28.72;100.00
73240;BME280;61452;40.054;4.110;2023-07-30T17:54:06;101787.50;;;28.75;100.00
73240;BME280;61452;40.054;4.110;2023-07-30T17:59:09;101785.66;;;28.76;100.00
73240;BME280;61452;40.054;4.110;2023-07-30T18:04:11;101783.94;;;28.75;100.00
73240;BME280;61452;40.054;4.110;2023-07-30T18:09:13;101787.78;;;28.72;100.00
73240;BME280;61452;40.054;4.110;2023-07-30T18:14:16;101791.34;;;28.73;100.00
73240;BME280;61452;40.054;4.110;2023-07-30T18:19:18;101802.28;;;28.71;100.00
73240;BME280;61452;40.054;4.110;2023-07-30T18:24:21;101796.03;;;28.71;100.00
73240;BME280;61452;40.054;4.110;2023-07-30T18:29:23;101806.50;;;28.66;100.00
73240;BME280;61452;40.054;4.110;2023-07-30T18:34:25;101803.81;;;28.66;100.00
73240;BME280;61452;40.054;4.110;2023-07-30T18:39:27;101801.47;;;28.63;100.00
73240;BME280;61452;40.054;4.110;2023-07-30T18:44:30;101799.94;;;28.60;100.00
73240;BME280;61452;40.054;4.110;2023-07-30T18:49:32;101809.38;;;28.56;100.00
73240;BME280;61452;40.054;4.110;2023-07-30T18:54:34;101803.66;;;28.51;100.00
73240;BME280;61452;40.054;4.110;2023-07-30T18:59:37;101806.50;;;28.49;100.00
73240;BME280;61452;40.054;4.110;2023-07-30T19:04:40;101808.88;;;28.44;100.00
73240;BME280;61452;40.054;4.110;2023-07-30T19:09:42;101807.00;;;28.45;100.00
73240;BME280;61452;40.054;4.110;2023-07-30T19:14:44;101815.44;;;28.42;100.00
73240;BME280;61452;40.054;4.110;2023-07-30T19:19:47;101825.38;;;28.41;100.00
73240;BME280;61452;40.054;4.110;2023-07-30T19:24:49;101818.47;;;28.39;100.00
73240;BME280;61452;40.054;4.110;2023-07-30T19:29:51;101820.63;;;28.35;100.00
73240;BME280;61452;40.054;4.110;2023-07-30T19:34:53;101821.47;;;28.28;100.00
73240;BME280;61452;40.054;4.110;2023-07-30T19:39:56;101826.38;;;28.32;100.00
73240;BME280;61452;40.054;4.110;2023-07-30T19:44:58;101829.59;;;28.36;100.00
73240;BME280;61452;40.054;4.110;2023-07-30T19:50:01;101835.66;;;28.38;100.00
73240;BME280;61452;40.054;4.110;2023-07-30T19:55:09;101834.94;;;28.28;100.00
73240;BME280;61452;40.054;4.110;2023-07-30T20:00:11;101832.44;;;28.34;100.00
73240;BME280;61452;40.054;4.110;2023-07-30T20:05:14;101837.34;;;28.31;100.00
73240;BME280;61452;40.054;4.110;2023-07-30T20:10:17;101848.97;;;28.31;100.00
73240;BME280;61452;40.054;4.110;2023-07-30T20:15:19;101847.38;;;28.12;100.00
73240;BME280;61452;40.054;4.110;2023-07-30T20:20:21;101856.31;;;28.13;100.00
73240;BME280;61452;40.054;4.110;2023-07-30T20:25:24;101861.16;;;28.09;100.00
73240;BME280;61452;40.054;4.110;2023-07-30T20:30:26;101863.72;;;28.11;100.00
73240;BME280;61452;40.054;4.110;2023-07-30T20:35:28;101858.66;;;28.08;100.00
73240;BME280;61452;40.054;4.110;2023-07-30T20:40:31;101862.84;;;28.10;100.00
73240;BME280;61452;40.054;4.110;2023-07-30T20:45:33;101860.31;;;28.09;100.00
73240;BME280;61452;40.054;4.110;2023-07-30T20:50:35;101866.91;;;28.06;100.00
73240;BME280;61452;40.054;4.110;2023-07-30T20:55:38;101855.09;;;28.07;100.00
73240;BME280;61452;40.054;4.110;2023-07-30T21:00:40;101861.16;;;28.09;100.00
73240;BME280;61452;40.054;4.110;2023-07-30T21:05:42;101857.47;;;28.10;100.00
73240;BME280;61452;40.054;4.110;2023-07-30T21:10:44;101856.47;;;28.11;100.00
73240;BME280;61452;40.054;4.110;2023-07-30T21:15:47;101856.63;;;28.10;100.00
73240;BME280;61452;40.054;4.110;2023-07-30T21:20:52;101848.53;;;28.10;100.00
73240;BME280;61452;40.054;4.110;2023-07-30T21:25:54;101853.41;;;28.06;100.00
73240;BME280;61452;40.054;4.110;2023-07-30T21:31:03;101853.25;;;28.08;100.00
73240;BME280;61452;40.054;4.110;2023-07-30T21:36:06;101861.50;;;28.06;100.00
73240;BME280;61452;40.054;4.110;2023-07-30T21:41:08;101866.34;;;28.03;100.00
73240;BME280;61452;40.054;4.110;2023-07-30T21:46:11;101867.53;;;28.00;100.00
73240;BME280;61452;40.054;4.110;2023-07-30T21:51:13;101869.41;;;28.00;100.00
73240;BME280;61452;40.054;4.110;2023-07-30T21:56:15;101879.00;;;28.02;100.00
73240;BME280;61452;40.054;4.110;2023-07-30T22:01:17;101882.88;;;28.00;100.00
73240;BME280;61452;40.054;4.110;2023-07-30T22:06:20;101879.34;;;27.99;100.00
73240;BME280;61452;40.054;4.110;2023-07-30T22:11:22;101882.72;;;28.01;100.00
73240;BME280;61452;40.054;4.110;2023-07-30T22:16:28;101888.28;;;28.00;100.00
73240;BME280;61452;40.054;4.110;2023-07-30T22:21:30;101891.66;;;28.02;100.00
73240;BME280;61452;40.054;4.110;2023-07-30T22:26:32;101890.63;;;28.03;100.00
73240;BME280;61452;40.054;4.110;2023-07-30T22:31:37;101888.97;;;28.02;100.00
73240;BME280;61452;40.054;4.110;2023-07-30T22:36:40;101899.91;;;28.00;100.00
73240;BME280;61452;40.054;4.110;2023-07-30T22:41:43;101905.16;;;28.02;100.00
73240;BME280;61452;40.054;4.110;2023-07-30T22:46:45;101909.84;;;28.00;100.00
73240;BME280;61452;40.054;4.110;2023-07-30T22:51:48;101909.16;;;27.98;100.00
73240;BME280;61452;40.054;4.110;2023-07-30T22:56:50;101903.78;;;27.98;100.00
73240;BME280;61452;40.054;4.110;2023-07-30T23:01:54;101901.91;;;27.98;100.00
73240;BME280;61452;40.054;4.110;2023-07-30T23:06:58;101894.69;;;27.99;100.00
73240;BME280;61452;40.054;4.110;2023-07-30T23:12:00;101888.44;;;27.98;100.00
73240;BME280;61452;40.054;4.110;2023-07-30T23:17:03;101895.16;;;27.94;100.00
73240;BME280;61452;40.054;4.110;2023-07-30T23:22:05;101891.94;;;27.91;100.00
73240;BME280;61452;40.054;4.110;2023-07-30T23:27:12;101884.16;;;27.88;100.00
73240;BME280;61452;40.054;4.110;2023-07-30T23:32:16;101887.88;;;27.87;100.00
73240;BME280;61452;40.054;4.110;2023-07-30T23:37:18;101888.88;;;27.86;100.00
73240;BME280;61452;40.054;4.110;2023-07-30T23:42:20;101889.72;;;27.86;100.00
73240;BME280;61452;40.054;4.110;2023-07-30T23:47:23;101884.31;;;27.86;100.00
73240;BME280;61452;40.054;4.110;2023-07-30T23:52:28;101888.03;;;27.85;100.00
73240;BME280;61452;40.054;4.110;2023-07-30T23:57:36;101881.78;;;27.85;100.00
